Aeroporto :
LOGIN :

Iscrizione | Disclaimer

   EN    FR    IT 

 










Sommario :    VFR   VFR Marginale   IFR   IFR Intensivo   IFR Molto Intensivo
Visibilità : 
Base nubi : 
>= 8 km
>= 3000ft
5 / 8 km
1000 / 3000 ft
1500m / 5 km
500 / 1000 ft
800 / 1500m
200 / 500 ft
< 800m
< 200 ft
Simboli :   Temporali  Nebbia  Neve Forte  Precipitazioni Forti  Vento > 20 kt
SIGMETs :   Varie  Temporali  Ghiacco  Turbolenza  Onda orograficha  Ceneri Vulcaniche






- Altitudine del aeroporto : 82 ft
- Codice IATA : AAR


EKAH - Aarhus Tirstrup

ULTIMO METAR :
  • 201650Z AUTO 20009G21KT 150V250 6000NDV -SHRA BKN007/// 07/07 Q1000

METARs OBSOLETI :
  • 201620Z AUTO 19009G20KT 130V240 9000NDV -SHRA BKN006/// 07/07 Q1000
  • 201550Z AUTO 19010G23KT 120V260 9000NDV -SHRA BKN005/// 07/07 Q1001
  • 201520Z AUTO 19009G19KT 140V250 9000NDV -SHRA OVC005/// 07/07 Q1001
  • 201450Z AUTO 19009G22KT 140V300 9999NDV -SHRA BKN005/// 07/07 Q1002
  • 201420Z AUTO 19008KT 140V250 6000NDV -RA BKN004/// 07/07 Q1003

TAF TAF EKAH
Valido dal 20 a 12 ore il 21 a 12 ore UTC


201114Z 2012/2112 19012KT 2500 RADZ BKN004
TEMPO 2012/2015 20018G28KT 6000 -RADZ SCT005 BKN010
BECMG 2015/2017 20018G30KT 7000 -RADZ SCT004 BKN012
TEMPO 2017/2020 22015KT 4000 RADZ BKN006
BECMG 2020/2022 20020G35KT 3000 RA BKN005
BECMG 2022/2024 28012KT 9999 SCT020
TEMPO 2102/2109 SHRA SCT020CB
BECMG 2110/2112 24015G28KT



MetMap, La meteo Aeronautica in un colpo d'occhio ! - Copyright ORBIFLY Dicembre 2007 - Disclaimer

ORBIFLY MET'MAP TEAM :

Programmazione e sviluppo : Alexandra Zaïnal
Concezione : Baudouin d'Aumeries
Aiuto per la programmazione : Marc-Olivier Méhu
Supporto tecnico e logistico : Manuel Goepfert
Aiuto per la traduzione : Arnaldo La Scala

Contatto : metmap@orbifly.com




FONTI E CREDITI :

   NOAA